createdAt,value
2019-04-14T00:04:42.302Z,101833.99
2019-04-14T00:09:47.538Z,101832.12
2019-04-14T00:14:51.757Z,101831.78
2019-04-14T00:19:56.672Z,101832.28
2019-04-14T00:25:02.258Z,101831.44
2019-04-14T00:30:08.055Z,101831.16
2019-04-14T00:35:25.485Z,101828.31
2019-04-14T00:40:34.972Z,101834.91
2019-04-14T00:45:49.930Z,101828.97
2019-04-14T00:50:53.967Z,101823.83
2019-04-14T00:55:58.260Z,101817.34
2019-04-14T01:01:02.769Z,101821.17
2019-04-14T01:06:07.668Z,101823.51
2019-04-14T01:11:12.009Z,101821.33
2019-04-14T01:16:20.165Z,101828.59
2019-04-14T01:21:22.141Z,101830.58
2019-04-14T01:26:26.749Z,101825.63
2019-04-14T01:31:31.695Z,101826.60
2019-04-14T01:36:36.656Z,101828.36
2019-04-14T01:41:41.116Z,101826.41
2019-04-14T01:46:45.662Z,101837.75
2019-04-14T01:52:15.268Z,101838.19
2019-04-14T01:57:26.927Z,101836.67
2019-04-14T02:02:31.504Z,101837.48
2019-04-14T02:07:36.171Z,101835.89
2019-04-14T02:12:40.973Z,101838.10
2019-04-14T02:17:46.085Z,101836.08
2019-04-14T02:22:50.669Z,101838.37
2019-04-14T02:27:55.827Z,101838.99
2019-04-14T02:33:37.741Z,101830.22
2019-04-14T02:53:59.224Z,101833.08
2019-04-14T03:04:01.742Z,101830.03
2019-04-14T03:09:28.915Z,101829.56
2019-04-14T03:14:19.709Z,101835.62
2019-04-14T03:19:35.517Z,101830.58
2019-04-14T03:24:37.547Z,101836.03
2019-04-14T03:30:33.516Z,101838.48
2019-04-14T03:35:51.122Z,101834.05
2019-04-14T03:40:28.605Z,101840.91
2019-04-14T03:45:46.909Z,101838.41
2019-04-14T03:50:36.810Z,101838.56
2019-04-14T03:55:58.470Z,101834.31
2019-04-14T04:00:59.798Z,101825.69
2019-04-14T04:06:05.225Z,101829.16
2019-04-14T04:11:10.556Z,101818.72
2019-04-14T04:16:18.099Z,101821.92
2019-04-14T04:21:50.941Z,101825.89
2019-04-14T04:27:09.003Z,101828.99
2019-04-14T04:32:25.414Z,101832.46
2019-04-14T04:37:49.742Z,101841.31
2019-04-14T04:42:54.824Z,101833.89
2019-04-14T04:48:00.129Z,101842.70
2019-04-14T04:53:04.888Z,101851.52
2019-04-14T04:58:10.061Z,101849.00
2019-04-14T05:03:14.662Z,101848.43
2019-04-14T05:08:19.568Z,101853.73
2019-04-14T05:13:29.135Z,101852.70
2019-04-14T05:18:35.548Z,101859.84
2019-04-14T05:23:40.899Z,101865.73
2019-04-14T05:28:46.029Z,101866.77
2019-04-14T05:33:51.188Z,101870.73
2019-04-14T05:38:55.974Z,101873.89
2019-04-14T05:44:02.043Z,101873.89
2019-04-14T05:49:06.553Z,101872.19
2019-04-14T05:54:12.045Z,101875.50
2019-04-14T05:59:16.389Z,101882.03
2019-04-14T06:04:20.573Z,101888.05
2019-04-14T06:09:25.171Z,101894.02
2019-04-14T06:14:29.392Z,101895.24
2019-04-14T06:19:39.061Z,101892.88
2019-04-14T06:24:40.048Z,101901.22
2019-04-14T06:29:44.266Z,101898.00
2019-04-14T06:35:10.280Z,101897.30
2019-04-14T06:40:14.483Z,101897.55
2019-04-14T06:45:18.681Z,101902.64
2019-04-14T06:50:22.889Z,101901.89
2019-04-14T06:55:27.202Z,101898.42
2019-04-14T07:00:31.403Z,101911.16
2019-04-14T07:05:35.598Z,101909.37
2019-04-14T07:10:39.783Z,101912.69
2019-04-14T07:15:43.985Z,101916.73
2019-04-14T07:20:48.193Z,101917.66
2019-04-14T07:25:52.418Z,101916.19
2019-04-14T07:31:14.155Z,101925.47
2019-04-14T07:36:37.553Z,101922.41
2019-04-14T07:41:55.819Z,101922.88
2019-04-14T07:47:21.748Z,101922.30
2019-04-14T07:52:33.664Z,101918.45
2019-04-14T07:57:56.814Z,101924.54
2019-04-14T08:03:14.543Z,101918.97
2019-04-14T08:08:18.750Z,101925.59
2019-04-14T08:13:25.960Z,101927.34
2019-04-14T08:18:30.161Z,101929.80
2019-04-14T08:23:34.421Z,101931.63
2019-04-14T08:28:38.612Z,101939.98
2019-04-14T08:33:42.827Z,101937.22
2019-04-14T08:38:47.036Z,101938.94
2019-04-14T08:44:10.196Z,101941.67
2019-04-14T08:49:27.418Z,101946.98
2019-04-14T08:54:54.438Z,101947.24
2019-04-14T09:00:26.791Z,101944.59
2019-04-14T09:05:53.257Z,101950.00
2019-04-14T09:10:59.528Z,101945.44
2019-04-14T09:16:03.745Z,101954.88
2019-04-14T09:21:07.958Z,101946.67
2019-04-14T09:26:12.180Z,101946.34
2019-04-14T09:31:16.407Z,101950.31
2019-04-14T09:36:20.592Z,101951.09
2019-04-14T09:41:24.797Z,101955.16
2019-04-14T09:46:29.067Z,101963.46
2019-04-14T09:51:33.310Z,101969.44
2019-04-14T09:56:37.509Z,101966.08
2019-04-14T10:01:41.709Z,101975.20
2019-04-14T10:06:45.942Z,101969.08
2019-04-14T10:11:54.695Z,101967.94
2019-04-14T10:16:56.166Z,101970.91
2019-04-14T10:22:00.428Z,101978.72
2019-04-14T10:27:04.664Z,101976.59
2019-04-14T10:32:08.868Z,101977.39
2019-04-14T10:37:13.157Z,101990.06
2019-04-14T10:42:17.334Z,101990.39
2019-04-14T10:47:21.643Z,101986.24
2019-04-14T10:52:25.912Z,101983.28
2019-04-14T10:57:30.140Z,101996.13
2019-04-14T11:02:34.453Z,102000.59
2019-04-14T11:07:38.677Z,102009.91
2019-04-14T11:12:43.028Z,102006.61
2019-04-14T11:17:47.420Z,102001.14
2019-04-14T11:23:02.753Z,101992.48
2019-04-14T11:27:57.630Z,101994.97
2019-04-14T11:33:13.519Z,101992.07
2019-04-14T11:38:33.060Z,101983.98
2019-04-14T11:43:37.292Z,101990.47
2019-04-14T11:48:41.510Z,101986.47
2019-04-14T11:53:45.716Z,101980.02
2019-04-14T11:58:49.972Z,101983.67
2019-04-14T12:04:13.160Z,101985.14
2019-04-14T12:09:20.783Z,101988.44
2019-04-14T12:14:24.993Z,101983.55
2019-04-14T12:19:29.252Z,101971.52
2019-04-14T12:24:33.528Z,101974.00
2019-04-14T12:29:38.949Z,101968.55
2019-04-14T12:34:43.906Z,101974.30
2019-04-14T12:39:48.432Z,101974.84
2019-04-14T12:45:17.746Z,101977.48
2019-04-14T12:50:29.009Z,101970.52
2019-04-14T12:55:33.245Z,101978.31
2019-04-14T13:01:05.572Z,101976.87
2019-04-14T13:06:09.783Z,101971.81
2019-04-14T13:11:14.005Z,101969.41
2019-04-14T13:16:18.252Z,101964.80
2019-04-14T13:21:22.503Z,101958.11
2019-04-14T13:26:26.721Z,101970.77
2019-04-14T13:31:30.942Z,101952.94
2019-04-14T13:36:35.134Z,101952.67
2019-04-14T13:41:39.467Z,101941.30
2019-04-14T13:46:44.713Z,101938.89
2019-04-14T13:51:48.930Z,101944.98
2019-04-14T13:56:53.160Z,101948.13
2019-04-14T14:01:57.390Z,101941.75
2019-04-14T14:07:01.626Z,101939.88
2019-04-14T14:12:16.344Z,101946.52
2019-04-14T14:17:30.400Z,101935.37
2019-04-14T14:22:59.228Z,101941.41
2019-04-14T14:27:57.603Z,101931.95
2019-04-14T14:33:01.806Z,101943.55
2019-04-14T14:38:06.067Z,101944.03
2019-04-14T14:43:10.299Z,101954.75
2019-04-14T14:48:39.514Z,101951.72
2019-04-14T14:53:43.770Z,101959.36
2019-04-14T14:58:48.023Z,101946.97
2019-04-14T15:03:52.341Z,101941.28
2019-04-14T15:08:56.549Z,101937.77
2019-04-14T15:14:00.774Z,101939.28
2019-04-14T15:19:05.317Z,101951.75
2019-04-14T15:24:09.552Z,101949.11
2019-04-14T15:29:13.773Z,101944.69
2019-04-14T15:34:18.054Z,101951.21
2019-04-14T15:39:22.502Z,101947.15
2019-04-14T15:44:26.705Z,101953.27
2019-04-14T15:49:31.099Z,101952.23
2019-04-14T15:54:35.367Z,101957.37
2019-04-14T15:59:55.156Z,101960.46
2019-04-14T16:05:12.820Z,101959.64
2019-04-14T16:10:26.094Z,101963.25
2019-04-14T16:15:38.402Z,101965.60
2019-04-14T16:20:44.131Z,101970.97
2019-04-14T16:26:02.828Z,101969.68
2019-04-14T16:31:44.176Z,101965.30
2019-04-14T16:36:52.497Z,101964.92
2019-04-14T16:41:57.171Z,101973.77
2019-04-14T16:47:01.422Z,101968.36
2019-04-14T16:52:40.089Z,101974.34
2019-04-14T16:58:01.991Z,101966.06
2019-04-14T17:03:06.284Z,101958.28
2019-04-14T17:08:10.521Z,101960.23
2019-04-14T17:13:15.059Z,101962.66
2019-04-14T17:18:40.884Z,101962.03
2019-04-14T17:23:50.295Z,101974.07
2019-04-14T17:29:08.003Z,101977.98
2019-04-14T17:34:37.106Z,101982.05
2019-04-14T17:40:06.378Z,101983.64
2019-04-14T17:45:27.706Z,101986.98
2019-04-14T17:50:49.094Z,101989.59
2019-04-14T17:56:11.011Z,101992.49
2019-04-14T18:01:33.183Z,101994.42
2019-04-14T18:06:43.533Z,101996.31
2019-04-14T18:12:07.172Z,101999.40
2019-04-14T18:17:28.868Z,102004.03
2019-04-14T18:22:33.404Z,102012.05
2019-04-14T18:27:49.450Z,102012.99
2019-04-14T18:33:16.014Z,102017.39
2019-04-14T18:38:37.272Z,102029.97
2019-04-14T18:44:12.953Z,102038.61
2019-04-14T18:49:23.943Z,102046.92
2019-04-14T18:54:54.603Z,102045.92
2019-04-14T19:00:29.888Z,102051.67
2019-04-14T19:05:34.749Z,102060.58
2019-04-14T19:10:40.041Z,102055.27
2019-04-14T19:15:48.914Z,102069.48
2019-04-14T19:20:59.148Z,102072.17
2019-04-14T19:26:04.076Z,102073.04
2019-04-14T19:31:10.920Z,102078.54
2019-04-14T19:36:16.157Z,102078.58
2019-04-14T19:41:21.288Z,102078.77
2019-04-14T19:46:27.228Z,102084.81
2019-04-14T19:51:32.043Z,102084.87
2019-04-14T19:56:37.115Z,102088.53
2019-04-14T20:01:42.259Z,102095.70
2019-04-14T20:06:47.008Z,102100.41
2019-04-14T20:11:52.172Z,102105.62
2019-04-14T20:17:06.925Z,102101.97
2019-04-14T20:22:22.648Z,102107.66
2019-04-14T20:27:45.857Z,102109.17
2019-04-14T20:32:50.465Z,102108.86
2019-04-14T20:37:54.824Z,102123.36
2019-04-14T20:42:59.078Z,102117.03
2019-04-14T20:48:03.333Z,102122.88
2019-04-14T20:53:07.572Z,102129.55
2019-04-14T20:58:11.819Z,102128.72
2019-04-14T21:03:31.686Z,102135.89
2019-04-14T21:08:53.777Z,102135.75
2019-04-14T21:14:19.828Z,102145.92
2019-04-14T21:19:33.417Z,102146.08
2019-04-14T21:24:54.668Z,102154.75
2019-04-14T21:30:15.904Z,102155.24
2019-04-14T21:35:42.196Z,102166.72
2019-04-14T21:40:58.947Z,102166.22
2019-04-14T21:46:03.171Z,102174.50
2019-04-14T21:51:07.758Z,102176.33
2019-04-14T21:56:13.682Z,102184.14
2019-04-14T22:01:52.789Z,102181.44
2019-04-14T22:06:58.994Z,102191.21
2019-04-14T22:12:04.749Z,102193.88
2019-04-14T22:17:09.031Z,102199.66
2019-04-14T22:22:13.246Z,102205.27
2019-04-14T22:27:17.440Z,102211.89
2019-04-14T22:32:21.669Z,102212.59
2019-04-14T22:37:25.870Z,102217.24
2019-04-14T22:42:30.060Z,102217.24
2019-04-14T22:47:34.254Z,102229.22
2019-04-14T22:52:38.455Z,102232.54
2019-04-14T22:57:42.650Z,102237.19
2019-04-14T23:02:56.877Z,102240.52
2019-04-14T23:08:23.074Z,102247.48
2019-04-14T23:13:45.277Z,102251.25
2019-04-14T23:18:59.475Z,102265.38
2019-04-14T23:24:13.729Z,102260.69
2019-04-14T23:29:17.922Z,102265.42
2019-04-14T23:34:22.130Z,102268.20
2019-04-14T23:39:26.322Z,102261.83
2019-04-14T23:44:30.544Z,102267.80
2019-04-14T23:49:34.719Z,102268.70
2019-04-14T23:54:38.904Z,102266.39
2019-04-14T23:59:43.111Z,102270.64
